createdAt,value
2019-03-08T00:01:42.123Z,8.90
2019-03-08T00:04:11.187Z,9.10
2019-03-08T00:06:39.695Z,9.00
2019-03-08T00:11:37.273Z,9.10
2019-03-08T00:14:05.839Z,9.00
2019-03-08T00:19:01.986Z,9.20
2019-03-08T00:21:29.972Z,9.00
2019-03-08T00:26:27.034Z,9.40
2019-03-08T00:28:55.433Z,8.80
2019-03-08T00:41:17.212Z,9.00
2019-03-08T00:53:38.143Z,8.50
2019-03-08T00:58:34.137Z,8.60
2019-03-08T01:10:54.973Z,8.20
2019-03-08T01:13:23.130Z,8.00
2019-03-08T01:15:50.886Z,8.90
2019-03-08T01:18:18.489Z,8.90
2019-03-08T01:25:42.328Z,8.60
2019-03-08T01:28:12.435Z,9.20
2019-03-08T01:30:41.383Z,8.70
2019-03-08T01:35:37.056Z,8.30
2019-03-08T01:38:05.724Z,8.60
2019-03-08T01:43:01.930Z,8.60
2019-03-08T01:50:26.606Z,9.60
2019-03-08T01:52:54.684Z,8.90
2019-03-08T01:55:22.722Z,8.30
2019-03-08T02:00:18.689Z,8.70
2019-03-08T02:05:14.940Z,8.40
2019-03-08T02:15:07.804Z,8.60
2019-03-08T02:17:35.719Z,8.20
2019-03-08T02:22:32.953Z,8.60
2019-03-08T02:25:01.052Z,8.80
2019-03-08T02:32:26.584Z,8.10
2019-03-08T02:37:23.099Z,8.90
2019-03-08T02:49:43.101Z,8.20
2019-03-08T02:52:13.818Z,8.70
2019-03-08T02:54:41.907Z,9.00
2019-03-08T02:57:10.199Z,8.60
2019-03-08T02:59:38.955Z,9.10
2019-03-08T03:02:06.684Z,8.20
2019-03-08T03:04:34.791Z,8.40
2019-03-08T03:14:26.466Z,8.60
2019-03-08T03:19:22.907Z,8.20
2019-03-08T03:29:15.523Z,8.90
2019-03-08T03:31:43.712Z,8.60
2019-03-08T03:34:12.211Z,8.10
2019-03-08T03:36:40.475Z,7.70
2019-03-08T03:39:08.599Z,8.00
2019-03-08T03:41:37.204Z,8.00
2019-03-08T03:44:04.885Z,8.10
2019-03-08T03:49:01.232Z,8.20
2019-03-08T03:58:54.544Z,7.60
2019-03-08T04:01:35.943Z,7.50
2019-03-08T04:06:34.267Z,7.80
2019-03-08T04:09:04.899Z,7.80
2019-03-08T04:11:32.870Z,8.40
2019-03-08T04:16:29.376Z,8.00
2019-03-08T04:18:57.826Z,7.90
2019-03-08T04:23:54.861Z,7.70
2019-03-08T04:26:23.541Z,7.90
2019-03-08T04:28:52.030Z,8.20
2019-03-08T04:41:13.093Z,8.10
2019-03-08T04:43:41.201Z,7.80
2019-03-08T04:48:38.772Z,8.40
2019-03-08T04:53:35.676Z,7.60
2019-03-08T04:58:31.443Z,8.40
2019-03-08T05:00:58.840Z,8.00
2019-03-08T05:03:27.151Z,8.40
2019-03-08T05:08:23.463Z,8.00
2019-03-08T05:13:19.231Z,7.80
2019-03-08T05:23:11.858Z,8.60
2019-03-08T05:33:04.054Z,7.80
2019-03-08T05:40:28.356Z,7.60
2019-03-08T05:47:52.753Z,7.80
2019-03-08T05:50:21.043Z,8.00
2019-03-08T05:55:16.767Z,8.00
2019-03-08T06:02:41.952Z,8.00
2019-03-08T06:05:10.431Z,8.50
2019-03-08T06:15:23.836Z,8.70
2019-03-08T06:17:52.541Z,8.30
2019-03-08T06:30:12.735Z,8.50
2019-03-08T06:32:43.661Z,8.70
2019-03-08T06:35:13.197Z,8.50
2019-03-08T06:40:12.085Z,8.60
2019-03-08T06:42:42.492Z,7.90
2019-03-08T06:45:12.591Z,7.70
2019-03-08T06:50:09.666Z,9.10
2019-03-08T06:52:38.197Z,8.40
2019-03-08T07:00:12.138Z,8.40
2019-03-08T07:05:08.594Z,8.50
2019-03-08T07:07:37.298Z,8.90
2019-03-08T07:10:05.945Z,8.50
2019-03-08T07:12:34.129Z,8.50
2019-03-08T07:17:30.883Z,8.70
2019-03-08T07:20:26.221Z,8.50
2019-03-08T07:23:14.237Z,8.70
2019-03-08T07:26:00.553Z,8.90
2019-03-08T07:31:37.350Z,8.90
2019-03-08T07:34:21.276Z,8.60
2019-03-08T07:56:38.093Z,8.90
2019-03-08T08:02:36.859Z,8.90
2019-03-08T08:08:16.319Z,9.00
2019-03-08T08:13:58.643Z,8.60
2019-03-08T08:16:39.180Z,9.20
2019-03-08T08:22:13.488Z,8.50
2019-03-08T08:24:53.948Z,8.20
2019-03-08T08:30:30.222Z,9.00
2019-03-08T08:33:27.552Z,8.50
2019-03-08T08:36:14.338Z,9.10
2019-03-08T08:44:49.290Z,9.10
2019-03-08T08:50:25.205Z,8.70
2019-03-08T09:04:13.524Z,8.70
2019-03-08T09:09:51.030Z,8.40
2019-03-08T09:12:37.242Z,9.00
2019-03-08T09:15:20.767Z,9.00
2019-03-08T09:29:49.027Z,8.60
2019-03-08T09:35:17.235Z,8.30
2019-03-08T09:49:00.657Z,9.20
2019-03-08T09:51:46.726Z,9.20
2019-03-08T09:54:46.933Z,8.90
2019-03-08T10:00:32.916Z,9.50
2019-03-08T10:03:13.367Z,9.70
2019-03-08T10:06:02.093Z,10.10
2019-03-08T10:08:48.295Z,10.40
2019-03-08T10:17:01.310Z,13.90
2019-03-08T10:22:35.273Z,14.70
2019-03-08T10:25:22.119Z,15.40
2019-03-08T10:28:14.947Z,15.50
2019-03-08T10:31:05.959Z,15.80
2019-03-08T10:34:04.157Z,16.40
2019-03-08T10:36:49.804Z,18.20
2019-03-08T10:39:39.913Z,19.60
2019-03-08T10:42:28.317Z,20.80
2019-03-08T10:45:02.068Z,21.50
2019-03-08T10:47:55.852Z,21.90
2019-03-08T10:50:43.448Z,22.30
2019-03-08T10:53:27.517Z,23.00
2019-03-08T10:56:06.590Z,23.40
2019-03-08T10:58:43.815Z,23.10
2019-03-08T11:01:29.807Z,23.10
2019-03-08T11:04:06.086Z,21.60
2019-03-08T11:06:50.838Z,19.20
2019-03-08T11:09:45.640Z,18.10
2019-03-08T11:12:36.699Z,17.00
2019-03-08T11:15:24.190Z,15.90
2019-03-08T11:17:55.103Z,15.40
2019-03-08T11:20:42.126Z,14.70
2019-03-08T11:23:42.326Z,14.20
2019-03-08T11:26:29.522Z,13.90
2019-03-08T11:29:15.168Z,13.70
2019-03-08T11:31:51.618Z,13.60
2019-03-08T11:34:39.106Z,13.80
2019-03-08T11:37:15.440Z,13.70
2019-03-08T11:40:01.597Z,13.50
2019-03-08T11:42:51.746Z,13.90
2019-03-08T11:45:43.253Z,14.20
2019-03-08T11:48:27.731Z,14.40
2019-03-08T11:51:14.168Z,14.20
2019-03-08T11:53:56.134Z,13.70
2019-03-08T11:56:39.860Z,13.60
2019-03-08T11:59:33.422Z,13.60
2019-03-08T12:02:26.966Z,13.10
2019-03-08T12:05:16.631Z,12.70
2019-03-08T12:07:54.463Z,12.20
2019-03-08T12:10:48.617Z,12.10
2019-03-08T12:13:26.959Z,12.00
2019-03-08T12:16:09.685Z,12.00
2019-03-08T12:18:45.119Z,12.10
2019-03-08T12:21:32.754Z,12.10
2019-03-08T12:24:14.776Z,12.10
2019-03-08T12:27:01.997Z,12.30
2019-03-08T12:29:49.142Z,12.40
2019-03-08T12:32:52.022Z,12.30
2019-03-08T12:35:40.157Z,12.40
2019-03-08T12:38:26.267Z,12.60
2019-03-08T12:41:16.164Z,12.30
2019-03-08T12:47:09.531Z,13.00
2019-03-08T12:49:59.960Z,13.10
2019-03-08T12:52:44.543Z,13.70
2019-03-08T12:55:48.493Z,13.80
2019-03-08T12:58:54.391Z,14.60
2019-03-08T13:01:42.216Z,15.60
2019-03-08T13:04:20.274Z,15.20
2019-03-08T13:07:08.506Z,16.90
2019-03-08T13:09:48.802Z,16.30
2019-03-08T13:12:17.908Z,16.30
2019-03-08T13:14:46.130Z,16.50
2019-03-08T13:17:15.809Z,16.90
2019-03-08T13:19:44.747Z,17.50
2019-03-08T13:22:20.084Z,18.20
2019-03-08T13:24:48.265Z,17.80
2019-03-08T13:27:18.101Z,17.80
2019-03-08T13:32:15.156Z,16.20
2019-03-08T13:34:46.274Z,16.50
2019-03-08T13:37:14.035Z,16.50
2019-03-08T13:39:43.884Z,16.90
2019-03-08T13:42:11.703Z,17.80
2019-03-08T13:44:39.810Z,19.00
2019-03-08T13:47:09.441Z,19.00
2019-03-08T13:49:39.268Z,19.20
2019-03-08T13:52:08.115Z,19.00
2019-03-08T13:54:36.227Z,18.30
2019-03-08T13:59:34.981Z,16.20
2019-03-08T14:02:05.940Z,15.80
2019-03-08T14:07:04.124Z,14.70
2019-03-08T14:17:00.541Z,13.60
2019-03-08T14:19:28.390Z,13.50
2019-03-08T14:21:56.172Z,13.20
2019-03-08T14:24:25.437Z,13.70
2019-03-08T14:29:22.406Z,12.90
2019-03-08T14:31:54.792Z,12.80
2019-03-08T14:50:02.953Z,12.20
2019-03-08T14:57:28.641Z,12.30
2019-03-08T14:59:56.835Z,12.10
2019-03-08T15:02:24.904Z,12.10
2019-03-08T15:14:46.913Z,12.30
2019-03-08T15:17:16.902Z,11.80
2019-03-08T15:29:38.411Z,12.30
2019-03-08T15:34:36.758Z,11.70
2019-03-08T15:37:04.507Z,11.70
2019-03-08T15:39:33.841Z,11.40
2019-03-08T15:42:03.466Z,11.90
2019-03-08T15:44:33.119Z,11.60
2019-03-08T15:47:02.250Z,11.80
2019-03-08T15:54:33.173Z,11.50
2019-03-08T15:57:02.590Z,11.40
2019-03-08T16:06:53.647Z,11.20
2019-03-08T16:11:50.048Z,11.00
2019-03-08T16:26:37.900Z,11.40
2019-03-08T16:34:10.558Z,11.00
2019-03-08T16:42:10.739Z,10.80
2019-03-08T16:44:49.858Z,10.80
2019-03-08T16:47:35.763Z,10.80
2019-03-08T16:50:12.623Z,10.80
2019-03-08T16:52:50.048Z,10.70
2019-03-08T16:55:27.026Z,10.60
2019-03-08T16:58:13.479Z,10.60
2019-03-08T17:01:07.134Z,10.50
2019-03-08T17:03:43.668Z,10.20
2019-03-08T17:06:46.473Z,10.10
2019-03-08T17:09:32.374Z,10.20
2019-03-08T17:12:10.972Z,10.30
2019-03-08T17:15:05.797Z,9.90
2019-03-08T17:17:53.871Z,10.30
2019-03-08T17:20:36.761Z,10.10
2019-03-08T17:23:13.809Z,9.90
2019-03-08T17:26:00.540Z,9.80
2019-03-08T17:28:54.774Z,9.80
2019-03-08T17:31:46.553Z,9.80
2019-03-08T17:34:34.348Z,9.70
2019-03-08T17:37:31.011Z,9.80
2019-03-08T17:42:56.192Z,9.60
2019-03-08T17:45:49.299Z,9.70
2019-03-08T17:48:52.324Z,9.80
2019-03-08T17:54:37.847Z,9.80
2019-03-08T17:57:16.422Z,9.80
2019-03-08T17:59:58.320Z,9.80
2019-03-08T18:02:58.023Z,9.70
2019-03-08T18:05:50.983Z,9.80
2019-03-08T18:08:44.286Z,9.60
2019-03-08T18:11:30.879Z,9.50
2019-03-08T18:14:11.224Z,9.50
2019-03-08T18:16:51.045Z,9.60
2019-03-08T18:19:31.570Z,9.60
2019-03-08T18:22:07.093Z,9.90
2019-03-08T18:24:54.011Z,9.60
2019-03-08T18:27:53.630Z,9.50
2019-03-08T18:30:47.226Z,9.60
2019-03-08T18:33:29.680Z,9.60
2019-03-08T18:36:13.796Z,9.50
2019-03-08T18:38:58.783Z,9.60
2019-03-08T18:41:37.384Z,9.70
2019-03-08T18:44:24.645Z,9.50
2019-03-08T18:50:05.437Z,9.50
2019-03-08T18:52:53.293Z,9.50
2019-03-08T18:55:39.688Z,9.50
2019-03-08T18:58:26.314Z,9.50
2019-03-08T19:01:17.410Z,9.40
2019-03-08T19:04:01.058Z,9.50
2019-03-08T19:06:37.404Z,9.30
2019-03-08T19:09:11.607Z,9.40
2019-03-08T19:15:00.596Z,9.30
2019-03-08T19:20:23.247Z,9.30
2019-03-08T19:23:16.404Z,9.40
2019-03-08T19:26:02.032Z,9.40
2019-03-08T19:34:03.103Z,9.30
2019-03-08T19:39:34.126Z,9.30
2019-03-08T19:42:17.179Z,9.20
2019-03-08T19:45:14.039Z,9.20
2019-03-08T19:50:52.003Z,9.20
2019-03-08T19:53:45.361Z,9.20
2019-03-08T19:59:35.623Z,9.20
2019-03-08T20:02:18.131Z,9.20
2019-03-08T20:07:48.763Z,9.10
2019-03-08T20:13:21.316Z,9.10
2019-03-08T20:21:53.201Z,9.00
2019-03-08T20:27:39.281Z,9.00
2019-03-08T20:30:30.773Z,8.90
2019-03-08T20:33:24.400Z,8.90
2019-03-08T20:39:04.307Z,8.80
2019-03-08T20:44:23.083Z,8.70
2019-03-08T20:46:57.827Z,8.80
2019-03-08T20:49:25.622Z,8.80
2019-03-08T20:51:54.465Z,8.80
2019-03-08T20:56:52.406Z,8.90
2019-03-08T20:59:20.648Z,8.90
2019-03-08T21:04:16.682Z,9.00
2019-03-08T21:06:45.202Z,9.20
2019-03-08T21:09:14.112Z,9.20
2019-03-08T21:11:42.282Z,9.20
2019-03-08T21:14:10.779Z,9.10
2019-03-08T21:16:38.970Z,9.00
2019-03-08T21:19:10.035Z,9.00
2019-03-08T21:21:39.023Z,8.90
2019-03-08T21:24:07.241Z,8.80
2019-03-08T21:26:35.970Z,8.80
2019-03-08T21:31:31.905Z,8.70
2019-03-08T21:34:00.762Z,8.60
2019-03-08T21:36:29.396Z,8.60
2019-03-08T21:38:57.686Z,8.60
2019-03-08T21:41:26.336Z,8.50
2019-03-08T21:43:54.923Z,8.60
2019-03-08T21:46:23.088Z,8.60
2019-03-08T21:48:51.570Z,8.60
2019-03-08T21:51:21.579Z,8.60
2019-03-08T21:53:50.418Z,8.60
2019-03-08T21:58:47.858Z,8.60
2019-03-08T22:01:16.387Z,8.60
2019-03-08T22:03:48.748Z,8.50
2019-03-08T22:06:17.092Z,8.60
2019-03-08T22:08:59.599Z,8.60
2019-03-08T22:11:36.663Z,8.60
2019-03-08T22:14:04.864Z,8.60
2019-03-08T22:16:33.238Z,8.50
2019-03-08T22:19:01.833Z,8.60
2019-03-08T22:21:30.163Z,8.60
2019-03-08T22:23:58.907Z,8.70
2019-03-08T22:26:26.862Z,8.60
2019-03-08T22:28:55.351Z,8.80
2019-03-08T22:31:23.421Z,8.80
2019-03-08T22:33:51.980Z,8.70
2019-03-08T22:36:19.797Z,8.70
2019-03-08T22:38:48.168Z,8.60
2019-03-08T22:41:16.126Z,8.70
2019-03-08T22:43:44.475Z,8.70
2019-03-08T22:46:12.254Z,8.70
2019-03-08T22:48:41.802Z,8.70
2019-03-08T22:51:10.433Z,8.70
2019-03-08T22:53:39.164Z,8.60
2019-03-08T22:56:07.798Z,8.70
2019-03-08T22:58:36.281Z,8.80
2019-03-08T23:01:12.239Z,8.80
2019-03-08T23:03:41.535Z,8.80
2019-03-08T23:06:10.798Z,8.80
2019-03-08T23:08:39.030Z,8.80
2019-03-08T23:16:06.872Z,8.70
2019-03-08T23:18:38.454Z,8.60
2019-03-08T23:21:06.973Z,8.60
2019-03-08T23:26:04.640Z,8.60
2019-03-08T23:28:40.731Z,8.60
2019-03-08T23:31:23.818Z,8.50
2019-03-08T23:33:56.938Z,8.50
2019-03-08T23:36:29.305Z,8.60
2019-03-08T23:38:57.312Z,8.70
2019-03-08T23:41:27.529Z,8.70
2019-03-08T23:46:25.106Z,8.80
2019-03-08T23:48:53.563Z,8.60
2019-03-08T23:51:21.690Z,8.80
2019-03-08T23:58:45.946Z,8.90
